Honolulu, HI

11:22 AM HST on August 04, 2015 (GMT -1000)
Honolulu International | | Change Station
CLOSE
Current Station
Airport
Location: Honolulu,
Elevation: 16 ft
Nearby Weather Stations

Elev 16 ft 21.32 °N, 157.92 °W | Updated 29 minutes ago

Mostly Cloudy
Mostly Cloudy
84 °F
Feels Like 88 °F
N
8
Wind Variable Wind from South

Today
High -- | Low -- °F
--% Chance of Precip.
Yesterday
High -- | Low -- °F
Precip. -- in
6:06 AM 7:09 PM
Waning Gibbous, 74% visible
Pressure 29.87 in
Visibility 10.0 miles
Clouds Few 2800 ft
Scattered Clouds 5000 ft
Mostly Cloudy 6500 ft
Heat Index 88 °F
Dew Point 70 °F
Humidity 63%
Rainfall 0.00 in
Snow Depth Not available.
UV 6 out of 12
Pollen Not available.
Air Quality Not available.
Flu Activity Not available.
METAR PHNL 042053Z 17007KT 10SM FEW028 SCT050 BKN065 29/21 A2987 RMK AO2 SLP113 T02890211 58005 $

More Conditions Fewer Conditions

Pressure 29.87 in
Visibility 10.0 miles
Clouds Few 2800 ft
Scattered Clouds 5000 ft
Mostly Cloudy 6500 ft
Heat Index 88 °F
Dew Point 70 °F
Humidity 63%
Rainfall 0.00 in
Snow Depth Not available.
UV 6 out of 12
Pollen Not available.
Air Quality Not available.
Flu Activity Not available.
METAR PHNL 042053Z 17007KT 10SM FEW028 SCT050 BKN065 29/21 A2987 RMK AO2 SLP113 T02890211 58005 $

More Conditions Fewer Conditions

10-Day Weather Forecast

×

Almanac

Astronomy

Aug. 04, 2015 Rise Set
Actual Time
Civil Twilight
Nautical Twilight
Astronomical Twilight
Moon
Length of Visible Light
Length of Day
Tomorrow will be .
, % of the Moon is Illuminated

Today's Extremes

State Highs State Lows

Community

WunderPhotos

Upload Photos

1,843,988 photos uploaded!

WunderBlogs® & News

Nearby

Air Quality

  Air Quality AQ Index Pollutant
Not available.

Snow Depth

Station Depth Elevation

Earthquake Activity

City Distance Mag. Time & Date
Minimum magnitude displayed is 2.5.

Coastal Water Temperatures

Place Temperature

Stations

Nearby Weather Stations

Station Location Temp. Windchill Dew Point Humidity Wind Precip. Elev Updated Type